Pagrindinis puslapis
METAR-TAF:

METAR-TAF

Oro uostai :

Paduja, Italija

platuma: 45-23-45N, ilguma: 11-50-53E, Aukštis: 13 m

Dabartinis oras

Ataskaita buvo paskelbta 14 valandos ir 2 minutes, ne 07:00 UTC
Vėjas 4 kt iš Šiaurės, svyruoja nuo Šiaurės Vakarų ir Šiaurės Rytų
Temperatūra 6°C
Drėgmė 100%
Slėgis 1022 hPa
Matomumas: 0600 m
dulksna, rūkas

METAR: LIPU 180700Z 36004KT 320V050 0600 -DZ FG VV/// 06/06 Q1022

Laikas: 22:02 (21:02 UTC)


TAF: trūkstamas

Orai ataskaitas ir orų prognozės (METAR, TAF).

turimą stotys yra geltonos ir raudonos taškus žemėlapyje.

Perkelti pele per norėdami pamatyti stoties vardą.

Tada spustelėkite, norėdami matyti oro stebėjimo ir prognozės.

Norėdami pakeisti žemėlapį: spustelėkite ant žalios mygtukų su juodo kryžiaus žemyn,; žalią mygtuką su brūkšneliu, jei norite nutolinti; arba žalių rodyklių gretimoms žemėlapius.


METAR-TAF: